createdAt,value
2019-02-28T00:01:43.207Z,9.40
2019-02-28T00:04:12.080Z,8.00
2019-02-28T00:06:43.965Z,8.08
2019-02-28T00:09:14.117Z,7.20
2019-02-28T00:11:43.736Z,7.67
2019-02-28T00:14:13.349Z,8.53
2019-02-28T00:16:43.038Z,6.83
2019-02-28T00:19:12.666Z,7.83
2019-02-28T00:21:42.377Z,6.97
2019-02-28T00:24:12.060Z,7.78
2019-02-28T00:26:46.539Z,6.17
2019-02-28T00:29:13.068Z,7.28
2019-02-28T00:31:42.702Z,6.70
2019-02-28T00:34:12.464Z,6.22
2019-02-28T00:36:42.678Z,8.15
2019-02-28T00:39:12.277Z,7.25
2019-02-28T00:41:44.787Z,8.70
2019-02-28T00:44:14.391Z,9.65
2019-02-28T00:46:45.184Z,6.92
2019-02-28T00:49:16.098Z,7.15
2019-02-28T00:51:46.690Z,8.60
2019-02-28T00:54:16.313Z,9.58
2019-02-28T00:56:51.435Z,8.65
2019-02-28T00:59:17.266Z,8.70
2019-02-28T01:01:47.059Z,6.40
2019-02-28T01:04:16.802Z,7.58
2019-02-28T01:06:46.505Z,7.22
2019-02-28T01:09:16.107Z,6.97
2019-02-28T01:11:45.734Z,8.80
2019-02-28T01:14:15.519Z,9.45
2019-02-28T01:16:45.198Z,10.10
2019-02-28T01:19:14.819Z,8.08
2019-02-28T01:21:44.439Z,10.10
2019-02-28T01:24:14.070Z,8.13
2019-02-28T01:26:46.714Z,9.25
2019-02-28T01:29:15.038Z,7.97
2019-02-28T01:31:44.654Z,7.00
2019-02-28T01:34:15.997Z,7.47
2019-02-28T01:36:48.392Z,7.78
2019-02-28T01:39:16.963Z,8.28
2019-02-28T01:41:46.592Z,8.65
2019-02-28T01:44:16.224Z,9.53
2019-02-28T01:46:48.442Z,8.55
2019-02-28T01:49:20.121Z,7.90
2019-02-28T01:51:49.743Z,8.15
2019-02-28T01:54:19.372Z,6.00
2019-02-28T01:56:48.984Z,6.10
2019-02-28T01:59:23.515Z,6.55
2019-02-28T02:01:53.148Z,5.47
2019-02-28T02:04:22.767Z,8.70
2019-02-28T02:06:52.574Z,8.90
2019-02-28T02:09:22.445Z,7.50
2019-02-28T02:11:52.078Z,7.90
2019-02-28T02:14:21.698Z,8.93
2019-02-28T02:16:53.526Z,9.13
2019-02-28T02:19:23.328Z,9.10
2019-02-28T02:21:52.955Z,6.33
2019-02-28T02:24:27.424Z,9.15
2019-02-28T02:26:59.111Z,8.73
2019-02-28T02:29:32.434Z,12.60
2019-02-28T02:32:02.980Z,7.53
2019-02-28T02:34:32.597Z,5.60
2019-02-28T02:37:03.423Z,7.20
2019-02-28T02:39:35.187Z,8.53
2019-02-28T02:42:09.811Z,8.33
2019-02-28T02:44:36.163Z,7.92
2019-02-28T02:47:08.007Z,9.10
2019-02-28T02:49:37.655Z,8.55
2019-02-28T02:52:07.283Z,8.38
2019-02-28T02:54:36.978Z,7.92
2019-02-28T02:57:06.679Z,9.40
2019-02-28T02:59:39.104Z,9.23
2019-02-28T03:02:07.723Z,8.20
2019-02-28T03:04:37.343Z,8.38
2019-02-28T03:07:06.964Z,10.23
2019-02-28T03:09:36.654Z,8.40
2019-02-28T03:12:06.445Z,12.03
2019-02-28T03:14:36.041Z,8.25
2019-02-28T03:17:11.533Z,9.60
2019-02-28T03:19:42.213Z,8.70
2019-02-28T03:22:11.820Z,9.60
2019-02-28T03:24:41.454Z,10.60
2019-02-28T03:27:11.079Z,9.68
2019-02-28T03:29:43.734Z,9.53
2019-02-28T03:32:14.378Z,8.18
2019-02-28T03:34:54.889Z,10.35
2019-02-28T03:37:15.332Z,9.55
2019-02-28T03:39:44.931Z,8.10
2019-02-28T03:42:14.554Z,12.60
2019-02-28T03:44:44.171Z,8.98
2019-02-28T03:47:13.800Z,10.10
2019-02-28T03:49:48.613Z,6.78
2019-02-28T03:52:14.831Z,8.03
2019-02-28T03:54:44.528Z,9.60
2019-02-28T03:57:14.629Z,9.38
2019-02-28T03:59:44.310Z,8.60
2019-02-28T04:02:21.088Z,9.25
2019-02-28T04:04:50.212Z,9.63
2019-02-28T04:07:18.324Z,7.90
2019-02-28T04:09:47.946Z,10.65
2019-02-28T04:12:17.561Z,11.15
2019-02-28T04:14:49.540Z,10.80
2019-02-28T04:17:19.246Z,11.15
2019-02-28T04:19:48.886Z,11.35
2019-02-28T04:22:23.048Z,9.75
2019-02-28T04:24:52.867Z,9.38
2019-02-28T04:27:22.489Z,8.88
2019-02-28T04:29:52.938Z,11.03
2019-02-28T04:32:26.352Z,9.25
2019-02-28T04:34:59.073Z,10.40
2019-02-28T04:37:28.709Z,8.30
2019-02-28T04:39:58.330Z,12.95
2019-02-28T04:42:27.951Z,12.18
2019-02-28T04:44:58.283Z,12.05
2019-02-28T04:47:27.915Z,9.95
2019-02-28T04:49:57.731Z,9.08
2019-02-28T04:52:28.406Z,11.78
2019-02-28T04:54:59.431Z,11.65
2019-02-28T04:57:29.351Z,7.70
2019-02-28T04:59:58.940Z,11.85
2019-02-28T05:02:28.543Z,9.63
2019-02-28T05:04:58.178Z,10.53
2019-02-28T05:07:29.646Z,9.65
2019-02-28T05:09:59.431Z,9.95
2019-02-28T05:12:29.144Z,9.90
2019-02-28T05:15:02.127Z,9.05
2019-02-28T05:17:30.495Z,8.50
2019-02-28T05:20:02.531Z,9.10
2019-02-28T05:22:35.252Z,9.58
2019-02-28T05:25:06.166Z,8.00
2019-02-28T05:27:36.413Z,8.08
2019-02-28T05:30:07.919Z,10.70
2019-02-28T05:32:37.546Z,8.80
2019-02-28T05:35:07.470Z,8.10
2019-02-28T05:37:37.169Z,9.93
2019-02-28T05:40:08.289Z,8.85
2019-02-28T05:42:37.966Z,9.80
2019-02-28T05:45:11.331Z,8.93
2019-02-28T05:47:46.857Z,9.43
2019-02-28T05:50:16.802Z,7.83
2019-02-28T05:52:45.997Z,10.18
2019-02-28T05:55:15.713Z,8.68
2019-02-28T05:57:49.842Z,8.95
2019-02-28T06:00:21.204Z,9.23
2019-02-28T06:02:51.064Z,9.58
2019-02-28T06:05:20.712Z,10.30
2019-02-28T06:07:54.432Z,9.65
2019-02-28T06:10:24.909Z,10.58
2019-02-28T06:12:54.621Z,10.40
2019-02-28T06:15:24.235Z,8.75
2019-02-28T06:17:54.986Z,6.92
2019-02-28T06:20:25.444Z,11.68
2019-02-28T06:22:55.085Z,9.35
2019-02-28T06:25:25.702Z,8.75
2019-02-28T06:27:55.405Z,9.03
2019-02-28T06:30:27.783Z,10.43
2019-02-28T06:32:59.164Z,9.70
2019-02-28T06:35:28.916Z,9.18
2019-02-28T06:37:58.541Z,9.15
2019-02-28T06:40:33.998Z,9.23
2019-02-28T06:43:07.235Z,7.97
2019-02-28T06:45:37.764Z,4.17
2019-02-28T06:48:07.619Z,5.95
2019-02-28T06:50:37.228Z,6.37
2019-02-28T06:53:06.827Z,4.85
2019-02-28T06:55:38.128Z,6.67
2019-02-28T06:58:07.857Z,5.17
2019-02-28T07:00:37.590Z,5.80
2019-02-28T07:03:07.471Z,6.60
2019-02-28T07:05:41.914Z,5.67
2019-02-28T07:08:12.995Z,6.20
2019-02-28T07:10:44.916Z,6.78
2019-02-28T07:13:14.509Z,7.72
2019-02-28T07:15:44.152Z,7.37
2019-02-28T07:18:14.229Z,8.50
2019-02-28T07:20:43.868Z,7.50
2019-02-28T07:23:13.594Z,8.30
2019-02-28T07:25:47.388Z,6.83
2019-02-28T07:28:18.031Z,9.93
2019-02-28T07:30:50.397Z,7.90
2019-02-28T07:33:19.380Z,8.75
2019-02-28T07:35:49.000Z,8.78
2019-02-28T07:38:18.806Z,6.00
2019-02-28T07:40:51.576Z,7.22
2019-02-28T07:43:21.258Z,5.35
2019-02-28T07:45:52.259Z,6.30
2019-02-28T07:48:26.852Z,4.87
2019-02-28T07:50:53.419Z,6.45
2019-02-28T07:53:23.379Z,7.28
2019-02-28T07:55:54.626Z,6.87
2019-02-28T07:58:26.623Z,9.35
2019-02-28T08:00:55.847Z,9.23
2019-02-28T08:03:29.470Z,9.53
2019-02-28T08:06:04.383Z,10.05
2019-02-28T08:08:30.780Z,8.50
2019-02-28T08:11:00.564Z,10.10
2019-02-28T08:13:30.194Z,10.50
2019-02-28T08:16:01.428Z,9.93
2019-02-28T08:18:31.672Z,8.48
2019-02-28T08:21:01.467Z,8.03
2019-02-28T08:23:31.372Z,10.58
2019-02-28T08:26:01.110Z,9.75
2019-02-28T08:28:35.809Z,11.57
2019-02-28T08:31:02.638Z,11.95
2019-02-28T08:33:32.309Z,8.50
2019-02-28T08:36:02.012Z,10.40
2019-02-28T08:38:34.265Z,9.20
2019-02-28T08:41:02.932Z,8.55
2019-02-28T08:43:32.552Z,7.37
2019-02-28T08:46:02.901Z,6.92
2019-02-28T08:48:34.819Z,11.38
2019-02-28T08:51:04.069Z,7.78
2019-02-28T08:53:33.806Z,8.00
2019-02-28T08:56:06.295Z,8.10
2019-02-28T08:58:37.596Z,6.30
2019-02-28T09:01:07.823Z,8.45
2019-02-28T09:03:37.596Z,8.48
2019-02-28T09:06:07.552Z,9.85
2019-02-28T09:08:38.257Z,8.58
2019-02-28T09:11:08.943Z,7.75
2019-02-28T09:13:39.960Z,7.53
2019-02-28T09:16:10.056Z,7.28
2019-02-28T09:18:39.727Z,8.28
2019-02-28T09:21:09.415Z,9.55
2019-02-28T09:23:41.673Z,6.65
2019-02-28T09:26:12.946Z,8.00
2019-02-28T09:28:44.382Z,7.87
2019-02-28T09:31:14.044Z,9.05
2019-02-28T09:33:43.668Z,10.53
2019-02-28T09:36:13.488Z,9.40
2019-02-28T09:38:45.232Z,8.98
2019-02-28T09:41:14.443Z,8.45
2019-02-28T09:43:44.204Z,12.85
2019-02-28T09:46:15.709Z,10.88
2019-02-28T09:48:45.574Z,9.18
2019-02-28T09:51:15.217Z,8.03
2019-02-28T09:53:57.137Z,8.55
2019-02-28T09:56:26.817Z,10.60
2019-02-28T09:59:00.217Z,12.73
2019-02-28T10:01:30.060Z,11.05
2019-02-28T10:03:59.733Z,12.78
2019-02-28T10:06:29.374Z,8.25
2019-02-28T10:09:08.720Z,10.48
2019-02-28T10:11:37.360Z,9.90
2019-02-28T10:14:06.979Z,7.65
2019-02-28T10:16:37.564Z,8.98
2019-02-28T10:19:10.155Z,9.43
2019-02-28T10:21:39.645Z,7.12
2019-02-28T10:24:09.338Z,8.60
2019-02-28T10:26:38.950Z,7.15
2019-02-28T10:29:10.211Z,7.00
2019-02-28T10:31:39.825Z,5.83
2019-02-28T10:34:09.437Z,7.42
2019-02-28T10:36:39.061Z,11.38
2019-02-28T10:39:09.741Z,8.45
2019-02-28T10:41:39.538Z,7.20
2019-02-28T10:44:09.196Z,7.22
2019-02-28T10:46:53.495Z,9.88
2019-02-28T10:49:21.042Z,9.43
2019-02-28T10:51:50.739Z,8.45
2019-02-28T10:54:20.370Z,9.00
2019-02-28T10:56:49.996Z,8.85
2019-02-28T10:59:21.323Z,8.75
2019-02-28T11:01:51.098Z,9.60
2019-02-28T11:04:20.784Z,11.97
2019-02-28T11:06:50.400Z,9.45
2019-02-28T11:09:25.473Z,10.23
2019-02-28T11:11:54.645Z,10.23
2019-02-28T11:14:25.249Z,11.20
2019-02-28T11:17:00.363Z,8.53
2019-02-28T11:19:30.114Z,10.05
2019-02-28T11:22:01.577Z,10.35
2019-02-28T11:24:32.146Z,11.12
2019-02-28T11:27:01.880Z,8.60
2019-02-28T11:29:35.058Z,10.25
2019-02-28T11:32:04.650Z,9.15
2019-02-28T11:34:35.885Z,12.03
2019-02-28T11:37:08.910Z,13.32
2019-02-28T11:39:38.133Z,12.30
2019-02-28T11:42:07.900Z,10.48
2019-02-28T11:44:40.143Z,9.28
2019-02-28T11:47:11.139Z,10.98
2019-02-28T11:49:48.996Z,10.68
2019-02-28T11:52:18.688Z,11.65
2019-02-28T11:54:49.932Z,10.55
2019-02-28T11:57:20.665Z,13.78
2019-02-28T12:00:00.078Z,11.08
2019-02-28T12:02:25.735Z,12.15
2019-02-28T12:04:55.348Z,13.85
2019-02-28T12:07:25.032Z,15.50
2019-02-28T12:09:55.763Z,14.75
2019-02-28T12:12:25.384Z,10.70
2019-02-28T12:14:55.019Z,10.75
2019-02-28T12:17:25.600Z,10.20
2019-02-28T12:19:57.391Z,13.75
2019-02-28T12:22:27.119Z,12.95
2019-02-28T12:24:56.732Z,13.25
2019-02-28T12:27:27.576Z,13.30
2019-02-28T12:29:58.100Z,18.45
2019-02-28T12:32:27.827Z,15.28
2019-02-28T12:34:57.449Z,14.15
2019-02-28T12:37:27.083Z,12.40
2019-02-28T12:39:56.717Z,15.25
2019-02-28T12:42:26.357Z,13.88
2019-02-28T12:44:57.786Z,12.85
2019-02-28T12:47:29.512Z,11.33
2019-02-28T12:49:59.130Z,11.95
2019-02-28T12:52:30.067Z,12.55
2019-02-28T12:54:59.698Z,11.75
2019-02-28T12:57:29.408Z,10.63
2019-02-28T12:59:59.044Z,11.60
2019-02-28T13:02:28.684Z,9.85
2019-02-28T13:04:58.312Z,16.40
2019-02-28T13:07:30.419Z,16.82
2019-02-28T13:10:03.891Z,17.17
2019-02-28T13:12:32.930Z,17.35
2019-02-28T13:15:02.582Z,17.32
2019-02-28T13:17:35.043Z,14.38
2019-02-28T13:20:08.248Z,14.58
2019-02-28T13:22:37.934Z,13.78
2019-02-28T13:25:08.602Z,17.70
2019-02-28T13:27:41.509Z,13.65
2019-02-28T13:30:18.479Z,14.60
2019-02-28T13:32:48.249Z,12.82
2019-02-28T13:35:21.270Z,11.78
2019-02-28T13:37:51.056Z,14.93
2019-02-28T13:40:22.218Z,18.60
2019-02-28T13:42:52.041Z,12.53
2019-02-28T13:45:23.680Z,14.70
2019-02-28T13:47:53.196Z,12.03
2019-02-28T13:50:25.657Z,15.98
2019-02-28T13:52:55.904Z,17.02
2019-02-28T13:55:31.775Z,16.07
2019-02-28T13:58:06.481Z,17.87
2019-02-28T14:00:36.096Z,24.72
2019-02-28T14:03:10.364Z,16.42
2019-02-28T14:05:41.415Z,18.50
2019-02-28T14:08:12.208Z,13.13
2019-02-28T14:10:43.670Z,14.83
2019-02-28T14:13:13.313Z,14.50
2019-02-28T14:15:43.569Z,13.40
2019-02-28T14:18:13.867Z,16.70
2019-02-28T14:20:43.600Z,12.47
2019-02-28T14:23:13.285Z,12.07
2019-02-28T14:25:42.990Z,14.03
2019-02-28T14:28:12.664Z,12.13
2019-02-28T14:30:42.564Z,10.05
2019-02-28T14:33:12.252Z,11.53
2019-02-28T14:35:41.863Z,9.25
2019-02-28T14:38:11.509Z,10.78
2019-02-28T14:40:42.083Z,9.28
2019-02-28T14:43:13.919Z,8.53
2019-02-28T14:45:43.975Z,10.38
2019-02-28T14:48:14.126Z,11.38
2019-02-28T14:50:45.186Z,10.23
2019-02-28T14:53:14.894Z,8.63
2019-02-28T14:55:45.688Z,9.15
2019-02-28T14:58:15.548Z,10.10
2019-02-28T15:00:45.626Z,8.95
2019-02-28T15:03:15.538Z,8.10
2019-02-28T15:05:47.770Z,9.38
2019-02-28T15:08:17.544Z,7.90
2019-02-28T15:10:54.906Z,9.53
2019-02-28T15:13:24.810Z,7.22
2019-02-28T15:15:54.571Z,5.00
2019-02-28T15:18:24.346Z,7.12
2019-02-28T15:20:54.017Z,8.20
2019-02-28T15:23:23.628Z,9.23
2019-02-28T15:25:54.186Z,8.30
2019-02-28T15:28:26.334Z,9.00
2019-02-28T15:30:56.280Z,7.95
2019-02-28T15:33:27.498Z,8.30
2019-02-28T15:35:58.607Z,7.05
2019-02-28T15:38:28.413Z,9.03
2019-02-28T15:40:58.776Z,6.83
2019-02-28T15:43:31.484Z,6.10
2019-02-28T15:46:01.368Z,6.53
2019-02-28T15:48:31.387Z,7.03
2019-02-28T15:51:03.493Z,6.70
2019-02-28T15:53:33.314Z,5.60
2019-02-28T15:56:13.019Z,6.45
2019-02-28T15:58:37.700Z,8.33
2019-02-28T16:01:08.076Z,7.42
2019-02-28T16:03:37.787Z,5.10
2019-02-28T16:06:07.471Z,5.40
2019-02-28T16:08:37.174Z,5.92
2019-02-28T16:11:07.176Z,4.65
2019-02-28T16:13:36.968Z,6.10
2019-02-28T16:16:06.658Z,7.10
2019-02-28T16:18:36.344Z,5.30
2019-02-28T16:21:07.283Z,6.12
2019-02-28T16:23:37.443Z,5.75
2019-02-28T16:26:07.196Z,6.60
2019-02-28T16:28:39.463Z,5.85
2019-02-28T16:31:08.236Z,5.37
2019-02-28T16:33:37.848Z,6.92
2019-02-28T16:36:07.470Z,6.72
2019-02-28T16:38:42.454Z,4.83
2019-02-28T16:41:15.127Z,4.90
2019-02-28T16:43:44.741Z,5.92
2019-02-28T16:46:15.491Z,5.10
2019-02-28T16:48:45.776Z,5.17
2019-02-28T16:51:15.400Z,3.67
2019-02-28T16:53:47.986Z,4.30
2019-02-28T16:56:16.357Z,5.22
2019-02-28T16:58:47.268Z,4.80
2019-02-28T17:01:17.565Z,4.50
2019-02-28T17:03:48.278Z,5.50
2019-02-28T17:06:17.916Z,4.40
2019-02-28T17:08:56.895Z,5.33
2019-02-28T17:11:26.508Z,4.33
2019-02-28T17:14:03.615Z,3.85
2019-02-28T17:16:40.595Z,5.53
2019-02-28T17:19:10.232Z,3.98
2019-02-28T17:21:39.868Z,4.65
2019-02-28T17:24:12.392Z,5.58
2019-02-28T17:26:54.579Z,4.47
2019-02-28T17:29:30.530Z,4.62
2019-02-28T17:32:00.230Z,4.53
2019-02-28T17:34:29.836Z,5.20
2019-02-28T17:37:02.276Z,3.50
2019-02-28T17:39:33.318Z,5.28
2019-02-28T17:42:08.870Z,4.95
2019-02-28T17:45:16.182Z,5.30
2019-02-28T17:48:12.867Z,4.50
2019-02-28T17:51:33.529Z,6.15
2019-02-28T17:54:23.405Z,4.90
2019-02-28T17:57:25.654Z,4.37
2019-02-28T18:00:38.566Z,6.15
2019-02-28T18:03:35.674Z,4.55
2019-02-28T18:06:31.339Z,3.72
2019-02-28T18:09:25.515Z,3.62
2019-02-28T18:12:34.880Z,3.15
2019-02-28T18:15:35.371Z,5.37
2019-02-28T18:18:21.936Z,4.72
2019-02-28T18:21:20.158Z,4.22
2019-02-28T18:24:15.494Z,6.08
2019-02-28T18:27:26.281Z,5.80
2019-02-28T18:30:32.752Z,6.95
2019-02-28T18:33:03.264Z,6.53
2019-02-28T18:35:33.526Z,7.05
2019-02-28T18:38:05.679Z,4.28
2019-02-28T18:40:35.315Z,5.85
2019-02-28T18:43:05.139Z,4.33
2019-02-28T18:45:37.851Z,5.47
2019-02-28T18:48:11.355Z,5.10
2019-02-28T18:50:41.068Z,4.95
2019-02-28T18:53:11.657Z,4.90
2019-02-28T18:55:42.279Z,4.30
2019-02-28T18:58:11.925Z,5.78
2019-02-28T19:00:41.551Z,4.55
2019-02-28T19:03:11.248Z,5.90
2019-02-28T19:05:40.946Z,6.05
2019-02-28T19:08:13.339Z,5.90
2019-02-28T19:10:42.978Z,4.28
2019-02-28T19:13:13.636Z,4.65
2019-02-28T19:15:45.118Z,4.87
2019-02-28T19:18:19.045Z,5.30
2019-02-28T19:20:48.724Z,4.55
2019-02-28T19:23:19.655Z,5.30
2019-02-28T19:25:49.283Z,3.80
2019-02-28T19:28:18.976Z,6.20
2019-02-28T19:30:48.599Z,4.95
2019-02-28T19:33:18.283Z,5.22
2019-02-28T19:35:47.892Z,4.42
2019-02-28T19:38:17.529Z,5.20
2019-02-28T19:40:47.150Z,5.92
2019-02-28T19:43:16.768Z,4.75
2019-02-28T19:45:47.336Z,3.67
2019-02-28T19:48:16.988Z,4.53
2019-02-28T19:50:46.675Z,5.10
2019-02-28T19:53:20.369Z,4.30
2019-02-28T19:55:50.458Z,4.37
2019-02-28T19:58:21.335Z,4.33
2019-02-28T20:00:53.438Z,5.03
2019-02-28T20:03:23.144Z,6.22
2019-02-28T20:05:52.961Z,4.12
2019-02-28T20:08:22.593Z,4.65
2019-02-28T20:10:52.222Z,3.60
2019-02-28T20:13:21.930Z,4.53
2019-02-28T20:15:51.748Z,3.55
2019-02-28T20:18:21.364Z,2.95
2019-02-28T20:20:51.018Z,3.75
2019-02-28T20:23:20.651Z,3.67
2019-02-28T20:25:50.354Z,5.35
2019-02-28T20:28:19.969Z,3.30
2019-02-28T20:30:49.670Z,4.40
2019-02-28T20:33:19.372Z,4.15
2019-02-28T20:35:49.166Z,3.45
2019-02-28T20:38:18.919Z,4.58
2019-02-28T20:40:48.603Z,4.00
2019-02-28T20:43:18.283Z,5.08
2019-02-28T20:45:48.491Z,5.28
2019-02-28T20:48:18.591Z,4.97
2019-02-28T20:50:48.293Z,3.98
2019-02-28T20:53:20.658Z,4.40
2019-02-28T20:55:50.445Z,4.85
2019-02-28T20:58:20.142Z,4.70
2019-02-28T21:00:49.760Z,5.70
2019-02-28T21:03:20.363Z,3.42
2019-02-28T21:05:50.072Z,4.12
2019-02-28T21:08:19.681Z,4.58
2019-02-28T21:10:51.634Z,4.72
2019-02-28T21:13:21.304Z,3.55
2019-02-28T21:15:51.079Z,5.22
2019-02-28T21:18:20.805Z,4.50
2019-02-28T21:20:50.442Z,4.37
2019-02-28T21:23:20.166Z,3.83
2019-02-28T21:25:50.132Z,5.87
2019-02-28T21:28:19.816Z,4.90
2019-02-28T21:30:49.444Z,5.30
2019-02-28T21:33:19.074Z,4.95
2019-02-28T21:35:50.339Z,5.28
2019-02-28T21:38:20.134Z,5.75
2019-02-28T21:40:53.443Z,4.20
2019-02-28T21:43:23.362Z,4.70
2019-02-28T21:45:53.064Z,5.55
2019-02-28T21:48:22.784Z,4.35
2019-02-28T21:50:55.330Z,5.62
2019-02-28T21:53:25.255Z,4.87
2019-02-28T21:55:54.972Z,4.95
2019-02-28T21:58:26.143Z,6.78
2019-02-28T22:00:58.508Z,4.47
2019-02-28T22:03:28.190Z,4.95
2019-02-28T22:05:57.900Z,4.75
2019-02-28T22:08:27.527Z,4.72
2019-02-28T22:11:05.506Z,5.47
2019-02-28T22:13:35.142Z,3.95
2019-02-28T22:16:04.824Z,5.50
2019-02-28T22:18:34.650Z,5.40
2019-02-28T22:21:08.379Z,5.50
2019-02-28T22:23:37.981Z,5.35
2019-02-28T22:26:07.664Z,4.62
2019-02-28T22:28:37.341Z,5.58
2019-02-28T22:31:21.186Z,4.47
2019-02-28T22:33:55.048Z,5.75
2019-02-28T22:36:39.492Z,6.35
2019-02-28T22:39:10.454Z,5.28
2019-02-28T22:41:40.425Z,5.78
2019-02-28T22:44:10.061Z,6.15
2019-02-28T22:46:39.675Z,5.37
2019-02-28T22:49:10.259Z,5.53
2019-02-28T22:51:41.496Z,4.92
2019-02-28T22:54:11.112Z,6.35
2019-02-28T22:56:43.519Z,5.78
2019-02-28T22:59:17.696Z,6.60
2019-02-28T23:01:49.468Z,5.78
2019-02-28T23:04:19.242Z,6.00
2019-02-28T23:07:00.705Z,5.28
2019-02-28T23:09:26.580Z,6.50
2019-02-28T23:11:56.380Z,6.40
2019-02-28T23:14:26.069Z,6.17
2019-02-28T23:16:55.729Z,5.00
2019-02-28T23:19:25.413Z,5.17
2019-02-28T23:21:55.065Z,2.72
2019-02-28T23:24:24.684Z,4.95
2019-02-28T23:27:14.911Z,4.20
2019-02-28T23:29:52.204Z,4.22
2019-02-28T23:32:40.439Z,5.00
2019-02-28T23:35:14.410Z,3.70
2019-02-28T23:37:44.035Z,3.92
2019-02-28T23:40:15.995Z,4.92
2019-02-28T23:42:45.615Z,3.92
2019-02-28T23:45:15.380Z,4.08
2019-02-28T23:47:44.983Z,4.45
2019-02-28T23:50:15.790Z,4.97
2019-02-28T23:52:45.470Z,5.37
2019-02-28T23:55:15.223Z,5.25
2019-02-28T23:57:45.822Z,4.60
